sensor_id;sensor_type;location;lat;lon;timestamp;temperature;humidity
43338;DHT22;28933;52.492;13.434;2023-05-07T07:55:02;12.90;97.60
43338;DHT22;28933;52.492;13.434;2023-05-07T08:08:23;12.90;97.50
43338;DHT22;28933;52.492;13.434;2023-05-07T08:10:48;13.00;97.50
43338;DHT22;28933;52.492;13.434;2023-05-07T08:13:16;13.10;97.50
43338;DHT22;28933;52.492;13.434;2023-05-07T08:15:41;13.10;97.40
43338;DHT22;28933;52.492;13.434;2023-05-07T08:18:07;13.20;97.30
43338;DHT22;28933;52.492;13.434;2023-05-07T08:20:33;13.30;97.00
43338;DHT22;28933;52.492;13.434;2023-05-07T08:22:58;13.30;97.20
43338;DHT22;28933;52.492;13.434;2023-05-07T08:25:24;13.40;97.00
43338;DHT22;28933;52.492;13.434;2023-05-07T08:27:50;13.40;96.60
43338;DHT22;28933;52.492;13.434;2023-05-07T08:30:15;13.40;96.60
43338;DHT22;28933;52.492;13.434;2023-05-07T08:32:46;13.50;96.30
43338;DHT22;28933;52.492;13.434;2023-05-07T08:35:11;13.50;96.30
43338;DHT22;28933;52.492;13.434;2023-05-07T08:37:37;13.60;96.20
43338;DHT22;28933;52.492;13.434;2023-05-07T08:40:03;13.60;96.20
43338;DHT22;28933;52.492;13.434;2023-05-07T08:42:29;13.70;96.10
43338;DHT22;28933;52.492;13.434;2023-05-07T08:44:57;13.70;96.00
43338;DHT22;28933;52.492;13.434;2023-05-07T08:47:29;13.80;96.10
43338;DHT22;28933;52.492;13.434;2023-05-07T08:50:00;13.90;96.00
43338;DHT22;28933;52.492;13.434;2023-05-07T08:52:27;13.90;95.90
43338;DHT22;28933;52.492;13.434;2023-05-07T08:54:52;14.00;95.80
43338;DHT22;28933;52.492;13.434;2023-05-07T08:57:18;14.10;95.50
43338;DHT22;28933;52.492;13.434;2023-05-07T08:59:45;14.20;95.40
43338;DHT22;28933;52.492;13.434;2023-05-07T09:02:11;14.30;95.20
43338;DHT22;28933;52.492;13.434;2023-05-07T09:04:37;14.40;95.10
43338;DHT22;28933;52.492;13.434;2023-05-07T09:07:02;14.50;95.20
43338;DHT22;28933;52.492;13.434;2023-05-07T09:09:32;14.70;94.70
43338;DHT22;28933;52.492;13.434;2023-05-07T09:11:59;14.70;94.60
43338;DHT22;28933;52.492;13.434;2023-05-07T09:14:25;14.80;94.60
43338;DHT22;28933;52.492;13.434;2023-05-07T09:16:52;14.90;94.30
43338;DHT22;28933;52.492;13.434;2023-05-07T09:19:23;15.00;94.50
43338;DHT22;28933;52.492;13.434;2023-05-07T09:21:49;15.10;94.20
43338;DHT22;28933;52.492;13.434;2023-05-07T09:24:15;15.10;94.10
43338;DHT22;28933;52.492;13.434;2023-05-07T09:26:41;15.10;94.00
43338;DHT22;28933;52.492;13.434;2023-05-07T09:29:08;15.20;93.90
43338;DHT22;28933;52.492;13.434;2023-05-07T09:31:38;15.20;93.80
43338;DHT22;28933;52.492;13.434;2023-05-07T09:34:05;15.20;93.50
43338;DHT22;28933;52.492;13.434;2023-05-07T09:36:32;15.20;93.40
43338;DHT22;28933;52.492;13.434;2023-05-07T09:39:01;15.20;93.50
43338;DHT22;28933;52.492;13.434;2023-05-07T09:41:27;15.20;93.50
43338;DHT22;28933;52.492;13.434;2023-05-07T09:43:54;15.30;93.20
43338;DHT22;28933;52.492;13.434;2023-05-07T09:46:25;15.40;93.30
43338;DHT22;28933;52.492;13.434;2023-05-07T09:48:52;15.40;92.80
43338;DHT22;28933;52.492;13.434;2023-05-07T09:51:29;15.40;92.80
43338;DHT22;28933;52.492;13.434;2023-05-07T09:53:56;15.50;93.00
43338;DHT22;28933;52.492;13.434;2023-05-07T09:56:22;15.50;92.90
43338;DHT22;28933;52.492;13.434;2023-05-07T09:58:49;15.60;92.60
43338;DHT22;28933;52.492;13.434;2023-05-07T10:01:18;15.60;92.50
43338;DHT22;28933;52.492;13.434;2023-05-07T10:03:47;15.70;92.50
43338;DHT22;28933;52.492;13.434;2023-05-07T10:06:14;15.70;92.20
43338;DHT22;28933;52.492;13.434;2023-05-07T10:08:41;15.70;92.00
43338;DHT22;28933;52.492;13.434;2023-05-07T10:11:08;15.80;91.80
43338;DHT22;28933;52.492;13.434;2023-05-07T10:13:34;15.80;92.00
43338;DHT22;28933;52.492;13.434;2023-05-07T10:16:02;15.90;91.90
43338;DHT22;28933;52.492;13.434;2023-05-07T10:18:33;15.90;91.60
43338;DHT22;28933;52.492;13.434;2023-05-07T10:21:08;15.90;91.40
43338;DHT22;28933;52.492;13.434;2023-05-07T10:23:34;15.90;91.40
43338;DHT22;28933;52.492;13.434;2023-05-07T10:26:03;15.90;91.40
43338;DHT22;28933;52.492;13.434;2023-05-07T10:28:31;16.00;91.20
43338;DHT22;28933;52.492;13.434;2023-05-07T10:33:45;16.00;90.80
43338;DHT22;28933;52.492;13.434;2023-05-07T10:36:12;16.00;90.80
43338;DHT22;28933;52.492;13.434;2023-05-07T10:38:38;16.00;90.80
43338;DHT22;28933;52.492;13.434;2023-05-07T10:41:06;16.10;90.70
43338;DHT22;28933;52.492;13.434;2023-05-07T10:43:44;16.10;90.40
43338;DHT22;28933;52.492;13.434;2023-05-07T10:46:13;16.10;90.30
43338;DHT22;28933;52.492;13.434;2023-05-07T10:51:32;16.20;90.10
43338;DHT22;28933;52.492;13.434;2023-05-07T11:02:01;16.60;90.00
43338;DHT22;28933;52.492;13.434;2023-05-07T11:04:33;16.60;89.80
43338;DHT22;28933;52.492;13.434;2023-05-07T11:15:14;17.00;89.30
43338;DHT22;28933;52.492;13.434;2023-05-07T11:17:57;17.20;88.70
43338;DHT22;28933;52.492;13.434;2023-05-07T11:26:08;17.60;87.40
43338;DHT22;28933;52.492;13.434;2023-05-07T11:28:40;17.70;85.90
43338;DHT22;28933;52.492;13.434;2023-05-07T11:31:06;17.60;85.30
43338;DHT22;28933;52.492;13.434;2023-05-07T11:33:33;17.50;85.00
43338;DHT22;28933;52.492;13.434;2023-05-07T11:36:00;17.40;84.40
43338;DHT22;28933;52.492;13.434;2023-05-07T11:38:26;17.30;83.90
43338;DHT22;28933;52.492;13.434;2023-05-07T11:40:53;17.20;84.50
43338;DHT22;28933;52.492;13.434;2023-05-07T11:43:19;17.20;84.50
43338;DHT22;28933;52.492;13.434;2023-05-07T11:45:46;17.20;84.60
43338;DHT22;28933;52.492;13.434;2023-05-07T11:48:16;17.20;84.30
43338;DHT22;28933;52.492;13.434;2023-05-07T11:51:03;17.30;84.40
43338;DHT22;28933;52.492;13.434;2023-05-07T11:53:39;17.40;84.70
43338;DHT22;28933;52.492;13.434;2023-05-07T11:56:13;17.50;84.40
43338;DHT22;28933;52.492;13.434;2023-05-07T11:58:39;17.60;84.40
43338;DHT22;28933;52.492;13.434;2023-05-07T12:01:08;17.70;84.20
43338;DHT22;28933;52.492;13.434;2023-05-07T12:03:40;17.70;83.70
43338;DHT22;28933;52.492;13.434;2023-05-07T12:06:08;17.60;83.20
43338;DHT22;28933;52.492;13.434;2023-05-07T12:08:36;17.60;83.20
43338;DHT22;28933;52.492;13.434;2023-05-07T12:11:03;17.60;82.70
43338;DHT22;28933;52.492;13.434;2023-05-07T12:13:29;17.50;83.00
43338;DHT22;28933;52.492;13.434;2023-05-07T12:15:57;17.50;82.40
43338;DHT22;28933;52.492;13.434;2023-05-07T12:18:23;17.50;81.70
43338;DHT22;28933;52.492;13.434;2023-05-07T12:20:50;17.50;81.20
43338;DHT22;28933;52.492;13.434;2023-05-07T12:23:16;17.50;80.60
43338;DHT22;28933;52.492;13.434;2023-05-07T12:25:43;17.60;80.70
43338;DHT22;28933;52.492;13.434;2023-05-07T12:28:13;17.70;80.80
43338;DHT22;28933;52.492;13.434;2023-05-07T12:30:42;17.70;80.80
43338;DHT22;28933;52.492;13.434;2023-05-07T12:33:08;17.80;80.50
43338;DHT22;28933;52.492;13.434;2023-05-07T12:35:42;17.70;80.70
43338;DHT22;28933;52.492;13.434;2023-05-07T12:38:12;17.80;80.50
43338;DHT22;28933;52.492;13.434;2023-05-07T12:43:05;17.80;80.00
43338;DHT22;28933;52.492;13.434;2023-05-07T12:45:30;17.80;79.80
43338;DHT22;28933;52.492;13.434;2023-05-07T12:47:56;17.70;79.10
43338;DHT22;28933;52.492;13.434;2023-05-07T12:50:30;17.60;79.20
43338;DHT22;28933;52.492;13.434;2023-05-07T12:52:58;17.50;79.10
43338;DHT22;28933;52.492;13.434;2023-05-07T12:55:24;17.50;79.40
43338;DHT22;28933;52.492;13.434;2023-05-07T12:57:51;17.70;79.70
43338;DHT22;28933;52.492;13.434;2023-05-07T13:00:39;17.80;79.90
43338;DHT22;28933;52.492;13.434;2023-05-07T13:03:06;17.90;79.50
43338;DHT22;28933;52.492;13.434;2023-05-07T13:05:32;18.00;79.30
43338;DHT22;28933;52.492;13.434;2023-05-07T13:07:58;18.20;79.10
43338;DHT22;28933;52.492;13.434;2023-05-07T13:10:24;18.20;78.20
43338;DHT22;28933;52.492;13.434;2023-05-07T13:12:50;18.40;78.00
43338;DHT22;28933;52.492;13.434;2023-05-07T13:15:16;18.40;78.10
43338;DHT22;28933;52.492;13.434;2023-05-07T13:17:42;18.50;77.70
43338;DHT22;28933;52.492;13.434;2023-05-07T13:20:09;18.60;78.10
43338;DHT22;28933;52.492;13.434;2023-05-07T13:22:35;18.70;77.70
43338;DHT22;28933;52.492;13.434;2023-05-07T13:25:01;18.80;77.60
43338;DHT22;28933;52.492;13.434;2023-05-07T13:27:27;19.00;77.40
43338;DHT22;28933;52.492;13.434;2023-05-07T13:29:52;19.00;76.20
43338;DHT22;28933;52.492;13.434;2023-05-07T13:32:18;19.10;76.30
43338;DHT22;28933;52.492;13.434;2023-05-07T13:34:43;19.10;75.80
43338;DHT22;28933;52.492;13.434;2023-05-07T13:37:09;19.30;76.00
43338;DHT22;28933;52.492;13.434;2023-05-07T13:39:35;19.40;75.40
43338;DHT22;28933;52.492;13.434;2023-05-07T13:42:01;19.50;75.10
43338;DHT22;28933;52.492;13.434;2023-05-07T13:44:26;19.70;74.30
43338;DHT22;28933;52.492;13.434;2023-05-07T13:46:52;19.70;73.80
43338;DHT22;28933;52.492;13.434;2023-05-07T13:49:18;19.60;73.20
43338;DHT22;28933;52.492;13.434;2023-05-07T13:51:43;19.60;73.40
43338;DHT22;28933;52.492;13.434;2023-05-07T13:54:09;19.60;73.40
43338;DHT22;28933;52.492;13.434;2023-05-07T13:56:34;19.70;73.00
43338;DHT22;28933;52.492;13.434;2023-05-07T13:59:00;19.80;72.50
43338;DHT22;28933;52.492;13.434;2023-05-07T14:01:26;20.00;72.20
43338;DHT22;28933;52.492;13.434;2023-05-07T14:03:52;20.10;72.20
43338;DHT22;28933;52.492;13.434;2023-05-07T14:06:18;20.20;72.00
43338;DHT22;28933;52.492;13.434;2023-05-07T14:08:43;20.30;71.80
43338;DHT22;28933;52.492;13.434;2023-05-07T14:11:09;20.30;71.20
43338;DHT22;28933;52.492;13.434;2023-05-07T14:13:35;20.30;70.70
43338;DHT22;28933;52.492;13.434;2023-05-07T14:16:00;20.30;71.10
43338;DHT22;28933;52.492;13.434;2023-05-07T14:18:26;20.30;71.30
43338;DHT22;28933;52.492;13.434;2023-05-07T14:20:54;20.40;70.60
43338;DHT22;28933;52.492;13.434;2023-05-07T14:23:19;20.40;70.00
43338;DHT22;28933;52.492;13.434;2023-05-07T14:25:47;20.50;69.80
43338;DHT22;28933;52.492;13.434;2023-05-07T14:28:13;20.50;69.20
43338;DHT22;28933;52.492;13.434;2023-05-07T14:30:39;20.50;68.90
43338;DHT22;28933;52.492;13.434;2023-05-07T14:33:04;20.30;68.90
43338;DHT22;28933;52.492;13.434;2023-05-07T14:35:30;20.30;69.10
43338;DHT22;28933;52.492;13.434;2023-05-07T14:37:55;20.30;68.50
43338;DHT22;28933;52.492;13.434;2023-05-07T14:40:21;20.20;68.60
43338;DHT22;28933;52.492;13.434;2023-05-07T14:42:46;20.20;68.70
43338;DHT22;28933;52.492;13.434;2023-05-07T14:45:12;20.20;69.00
43338;DHT22;28933;52.492;13.434;2023-05-07T14:47:38;20.10;68.70
43338;DHT22;28933;52.492;13.434;2023-05-07T14:50:04;20.00;68.30
43338;DHT22;28933;52.492;13.434;2023-05-07T14:52:29;19.80;68.00
43338;DHT22;28933;52.492;13.434;2023-05-07T14:54:55;19.70;68.30
43338;DHT22;28933;52.492;13.434;2023-05-07T14:57:21;19.50;68.50
43338;DHT22;28933;52.492;13.434;2023-05-07T14:59:47;19.40;68.50
43338;DHT22;28933;52.492;13.434;2023-05-07T15:02:13;19.30;69.10
43338;DHT22;28933;52.492;13.434;2023-05-07T15:04:43;19.20;69.40
43338;DHT22;28933;52.492;13.434;2023-05-07T15:07:13;19.20;69.60
43338;DHT22;28933;52.492;13.434;2023-05-07T15:09:44;19.20;69.30
43338;DHT22;28933;52.492;13.434;2023-05-07T15:12:10;19.20;69.50
43338;DHT22;28933;52.492;13.434;2023-05-07T15:14:37;19.10;69.60
43338;DHT22;28933;52.492;13.434;2023-05-07T15:17:03;19.10;69.40
43338;DHT22;28933;52.492;13.434;2023-05-07T15:19:29;19.00;69.50
43338;DHT22;28933;52.492;13.434;2023-05-07T15:21:59;18.90;69.80
43338;DHT22;28933;52.492;13.434;2023-05-07T15:24:28;18.80;69.90
43338;DHT22;28933;52.492;13.434;2023-05-07T15:26:54;18.70;70.10
43338;DHT22;28933;52.492;13.434;2023-05-07T15:29:19;18.70;70.50
43338;DHT22;28933;52.492;13.434;2023-05-07T15:31:45;18.60;70.40
43338;DHT22;28933;52.492;13.434;2023-05-07T15:34:11;18.50;70.20
43338;DHT22;28933;52.492;13.434;2023-05-07T15:36:37;18.30;70.30
43338;DHT22;28933;52.492;13.434;2023-05-07T15:39:02;18.20;70.40
43338;DHT22;28933;52.492;13.434;2023-05-07T15:41:29;18.10;70.30
43338;DHT22;28933;52.492;13.434;2023-05-07T15:43:55;18.00;70.10
43338;DHT22;28933;52.492;13.434;2023-05-07T15:46:22;17.90;69.90
43338;DHT22;28933;52.492;13.434;2023-05-07T15:48:52;17.80;69.90
43338;DHT22;28933;52.492;13.434;2023-05-07T15:51:18;17.60;69.90
43338;DHT22;28933;52.492;13.434;2023-05-07T15:53:45;17.60;70.30
43338;DHT22;28933;52.492;13.434;2023-05-07T15:56:11;17.60;70.30
43338;DHT22;28933;52.492;13.434;2023-05-07T15:58:37;17.50;70.20
43338;DHT22;28933;52.492;13.434;2023-05-07T16:01:03;17.50;70.40
43338;DHT22;28933;52.492;13.434;2023-05-07T16:03:30;17.40;70.60
43338;DHT22;28933;52.492;13.434;2023-05-07T16:05:56;17.30;70.80
43338;DHT22;28933;52.492;13.434;2023-05-07T16:08:25;17.30;71.10
43338;DHT22;28933;52.492;13.434;2023-05-07T16:10:51;17.40;71.30
43338;DHT22;28933;52.492;13.434;2023-05-07T16:13:17;17.60;71.60
43338;DHT22;28933;52.492;13.434;2023-05-07T16:15:45;17.80;71.70
43338;DHT22;28933;52.492;13.434;2023-05-07T16:18:11;18.00;71.80
43338;DHT22;28933;52.492;13.434;2023-05-07T16:20:40;18.30;71.90
43338;DHT22;28933;52.492;13.434;2023-05-07T16:23:07;18.50;71.60
43338;DHT22;28933;52.492;13.434;2023-05-07T16:25:33;18.70;71.10
43338;DHT22;28933;52.492;13.434;2023-05-07T16:27:58;18.80;70.50
43338;DHT22;28933;52.492;13.434;2023-05-07T16:30:24;18.90;70.20
43338;DHT22;28933;52.492;13.434;2023-05-07T16:32:50;18.90;70.00
43338;DHT22;28933;52.492;13.434;2023-05-07T16:35:15;18.90;69.70
43338;DHT22;28933;52.492;13.434;2023-05-07T16:37:41;19.00;69.70
43338;DHT22;28933;52.492;13.434;2023-05-07T16:40:07;19.00;69.40
43338;DHT22;28933;52.492;13.434;2023-05-07T16:42:34;19.00;69.40
43338;DHT22;28933;52.492;13.434;2023-05-07T16:45:00;18.90;69.20
43338;DHT22;28933;52.492;13.434;2023-05-07T16:47:26;18.80;69.00
43338;DHT22;28933;52.492;13.434;2023-05-07T16:49:51;18.70;68.90
43338;DHT22;28933;52.492;13.434;2023-05-07T16:52:17;18.50;69.00
43338;DHT22;28933;52.492;13.434;2023-05-07T16:54:43;18.30;69.20
43338;DHT22;28933;52.492;13.434;2023-05-07T16:57:08;18.10;69.40
43338;DHT22;28933;52.492;13.434;2023-05-07T16:59:34;18.00;69.60
43338;DHT22;28933;52.492;13.434;2023-05-07T17:02:00;17.90;69.80
43338;DHT22;28933;52.492;13.434;2023-05-07T17:04:25;17.80;69.80
43338;DHT22;28933;52.492;13.434;2023-05-07T17:06:51;17.80;70.20
43338;DHT22;28933;52.492;13.434;2023-05-07T17:09:17;17.80;70.20
43338;DHT22;28933;52.492;13.434;2023-05-07T17:11:43;17.80;70.30
43338;DHT22;28933;52.492;13.434;2023-05-07T17:14:08;17.80;70.40
43338;DHT22;28933;52.492;13.434;2023-05-07T17:16:35;17.80;70.30
43338;DHT22;28933;52.492;13.434;2023-05-07T17:19:01;17.80;70.20
43338;DHT22;28933;52.492;13.434;2023-05-07T17:21:27;17.80;70.30
43338;DHT22;28933;52.492;13.434;2023-05-07T17:23:53;17.80;69.90
43338;DHT22;28933;52.492;13.434;2023-05-07T17:26:19;17.70;70.00
43338;DHT22;28933;52.492;13.434;2023-05-07T17:28:45;17.60;70.00
43338;DHT22;28933;52.492;13.434;2023-05-07T17:31:11;17.40;69.90
43338;DHT22;28933;52.492;13.434;2023-05-07T17:33:36;17.30;69.80
43338;DHT22;28933;52.492;13.434;2023-05-07T17:36:02;17.10;69.60
43338;DHT22;28933;52.492;13.434;2023-05-07T17:38:29;16.90;70.00
43338;DHT22;28933;52.492;13.434;2023-05-07T17:40:54;16.90;70.20
43338;DHT22;28933;52.492;13.434;2023-05-07T17:43:20;16.80;70.50
43338;DHT22;28933;52.492;13.434;2023-05-07T17:45:51;16.70;70.60
43338;DHT22;28933;52.492;13.434;2023-05-07T17:48:16;16.60;70.80
43338;DHT22;28933;52.492;13.434;2023-05-07T17:50:42;16.60;71.00
43338;DHT22;28933;52.492;13.434;2023-05-07T17:53:09;16.50;71.30
43338;DHT22;28933;52.492;13.434;2023-05-07T17:55:39;16.40;72.00
43338;DHT22;28933;52.492;13.434;2023-05-07T17:58:06;16.30;71.50
43338;DHT22;28933;52.492;13.434;2023-05-07T18:00:32;16.30;71.80
43338;DHT22;28933;52.492;13.434;2023-05-07T18:02:58;16.20;71.90
43338;DHT22;28933;52.492;13.434;2023-05-07T18:05:27;16.10;72.10
43338;DHT22;28933;52.492;13.434;2023-05-07T18:07:53;16.10;72.30
43338;DHT22;28933;52.492;13.434;2023-05-07T18:10:21;16.00;72.20
43338;DHT22;28933;52.492;13.434;2023-05-07T18:12:47;15.90;72.30
43338;DHT22;28933;52.492;13.434;2023-05-07T18:15:13;15.80;72.40
43338;DHT22;28933;52.492;13.434;2023-05-07T18:17:39;15.70;72.60
43338;DHT22;28933;52.492;13.434;2023-05-07T18:20:06;15.60;72.80
43338;DHT22;28933;52.492;13.434;2023-05-07T18:22:33;15.60;73.10
43338;DHT22;28933;52.492;13.434;2023-05-07T18:24:59;15.50;73.30
43338;DHT22;28933;52.492;13.434;2023-05-07T18:27:25;15.40;73.60
43338;DHT22;28933;52.492;13.434;2023-05-07T18:29:51;15.40;73.70
43338;DHT22;28933;52.492;13.434;2023-05-07T18:32:16;15.30;74.00
43338;DHT22;28933;52.492;13.434;2023-05-07T18:34:42;15.30;74.60
43338;DHT22;28933;52.492;13.434;2023-05-07T18:37:08;15.30;74.40
43338;DHT22;28933;52.492;13.434;2023-05-07T18:39:34;15.30;74.60
43338;DHT22;28933;52.492;13.434;2023-05-07T18:42:00;15.20;74.80
43338;DHT22;28933;52.492;13.434;2023-05-07T18:44:26;15.20;75.30
43338;DHT22;28933;52.492;13.434;2023-05-07T18:46:51;15.20;75.50
43338;DHT22;28933;52.492;13.434;2023-05-07T18:49:17;15.10;75.10
43338;DHT22;28933;52.492;13.434;2023-05-07T18:51:43;15.00;75.20
43338;DHT22;28933;52.492;13.434;2023-05-07T18:54:09;15.00;75.30
43338;DHT22;28933;52.492;13.434;2023-05-07T18:56:35;15.00;75.60
43338;DHT22;28933;52.492;13.434;2023-05-07T18:59:00;15.00;75.60
43338;DHT22;28933;52.492;13.434;2023-05-07T19:01:26;15.00;75.60
43338;DHT22;28933;52.492;13.434;2023-05-07T19:03:51;15.00;75.60
43338;DHT22;28933;52.492;13.434;2023-05-07T19:06:17;14.90;75.60
43338;DHT22;28933;52.492;13.434;2023-05-07T19:08:43;14.80;75.50
43338;DHT22;28933;52.492;13.434;2023-05-07T19:11:08;14.80;75.50
43338;DHT22;28933;52.492;13.434;2023-05-07T19:13:34;14.70;75.50
43338;DHT22;28933;52.492;13.434;2023-05-07T19:16:00;14.70;75.70
43338;DHT22;28933;52.492;13.434;2023-05-07T19:18:26;14.60;75.70
43338;DHT22;28933;52.492;13.434;2023-05-07T19:20:51;14.60;75.60
43338;DHT22;28933;52.492;13.434;2023-05-07T19:23:17;14.50;75.70
43338;DHT22;28933;52.492;13.434;2023-05-07T19:25:43;14.50;75.70
43338;DHT22;28933;52.492;13.434;2023-05-07T19:28:08;14.50;75.80
43338;DHT22;28933;52.492;13.434;2023-05-07T19:30:37;14.50;75.80
43338;DHT22;28933;52.492;13.434;2023-05-07T19:33:04;14.40;75.90
43338;DHT22;28933;52.492;13.434;2023-05-07T19:35:30;14.40;76.00
43338;DHT22;28933;52.492;13.434;2023-05-07T19:37:56;14.30;76.00
43338;DHT22;28933;52.492;13.434;2023-05-07T19:40:21;14.30;76.10
43338;DHT22;28933;52.492;13.434;2023-05-07T19:42:47;14.30;76.20
43338;DHT22;28933;52.492;13.434;2023-05-07T19:45:16;14.20;76.30
43338;DHT22;28933;52.492;13.434;2023-05-07T19:47:41;14.20;76.50
43338;DHT22;28933;52.492;13.434;2023-05-07T19:50:07;14.10;76.60
43338;DHT22;28933;52.492;13.434;2023-05-07T19:52:34;14.00;76.80
43338;DHT22;28933;52.492;13.434;2023-05-07T19:55:00;14.00;77.00
43338;DHT22;28933;52.492;13.434;2023-05-07T19:57:26;14.00;77.20
43338;DHT22;28933;52.492;13.434;2023-05-07T19:59:52;13.90;77.30
43338;DHT22;28933;52.492;13.434;2023-05-07T20:02:17;13.90;78.00
43338;DHT22;28933;52.492;13.434;2023-05-07T20:04:43;13.90;77.80
43338;DHT22;28933;52.492;13.434;2023-05-07T20:07:09;13.80;77.90
43338;DHT22;28933;52.492;13.434;2023-05-07T20:09:34;13.80;78.20
43338;DHT22;28933;52.492;13.434;2023-05-07T20:12:00;13.70;78.80
43338;DHT22;28933;52.492;13.434;2023-05-07T20:14:26;13.70;78.70
43338;DHT22;28933;52.492;13.434;2023-05-07T20:16:52;13.60;79.00
43338;DHT22;28933;52.492;13.434;2023-05-07T20:19:17;13.60;79.50
43338;DHT22;28933;52.492;13.434;2023-05-07T20:21:43;13.50;79.70
43338;DHT22;28933;52.492;13.434;2023-05-07T20:24:09;13.50;80.20
43338;DHT22;28933;52.492;13.434;2023-05-07T20:26:35;13.40;80.50
43338;DHT22;28933;52.492;13.434;2023-05-07T20:29:00;13.40;81.00
43338;DHT22;28933;52.492;13.434;2023-05-07T20:31:27;13.40;81.00
43338;DHT22;28933;52.492;13.434;2023-05-07T20:33:53;13.30;81.20
43338;DHT22;28933;52.492;13.434;2023-05-07T20:36:19;13.30;81.40
43338;DHT22;28933;52.492;13.434;2023-05-07T20:38:44;13.20;81.50
43338;DHT22;28933;52.492;13.434;2023-05-07T20:41:10;13.20;81.90
43338;DHT22;28933;52.492;13.434;2023-05-07T20:43:38;13.20;82.10
43338;DHT22;28933;52.492;13.434;2023-05-07T20:46:05;13.10;82.40
43338;DHT22;28933;52.492;13.434;2023-05-07T20:48:32;13.10;82.50
43338;DHT22;28933;52.492;13.434;2023-05-07T20:50:58;13.00;82.70
43338;DHT22;28933;52.492;13.434;2023-05-07T20:53:27;13.00;82.90
43338;DHT22;28933;52.492;13.434;2023-05-07T20:55:53;13.00;83.00
43338;DHT22;28933;52.492;13.434;2023-05-07T20:58:18;13.00;83.00
43338;DHT22;28933;52.492;13.434;2023-05-07T21:00:44;13.00;83.10
43338;DHT22;28933;52.492;13.434;2023-05-07T21:03:10;12.90;83.10
43338;DHT22;28933;52.492;13.434;2023-05-07T21:05:35;12.90;83.20
43338;DHT22;28933;52.492;13.434;2023-05-07T21:08:01;12.80;83.40
43338;DHT22;28933;52.492;13.434;2023-05-07T21:10:29;12.80;83.50
43338;DHT22;28933;52.492;13.434;2023-05-07T21:12:55;12.70;83.50
43338;DHT22;28933;52.492;13.434;2023-05-07T21:15:20;12.70;83.60
43338;DHT22;28933;52.492;13.434;2023-05-07T21:17:46;12.70;83.70
43338;DHT22;28933;52.492;13.434;2023-05-07T21:20:12;12.60;83.80
43338;DHT22;28933;52.492;13.434;2023-05-07T21:22:37;12.50;83.90
43338;DHT22;28933;52.492;13.434;2023-05-07T21:25:03;12.50;84.20
43338;DHT22;28933;52.492;13.434;2023-05-07T21:27:29;12.40;84.30
43338;DHT22;28933;52.492;13.434;2023-05-07T21:29:55;12.40;84.40
43338;DHT22;28933;52.492;13.434;2023-05-07T21:32:28;12.40;84.70
43338;DHT22;28933;52.492;13.434;2023-05-07T21:34:54;12.40;84.90
43338;DHT22;28933;52.492;13.434;2023-05-07T21:37:20;12.40;85.20
43338;DHT22;28933;52.492;13.434;2023-05-07T21:39:46;12.30;85.30
43338;DHT22;28933;52.492;13.434;2023-05-07T21:42:11;12.30;85.50
43338;DHT22;28933;52.492;13.434;2023-05-07T21:44:37;12.20;85.60
43338;DHT22;28933;52.492;13.434;2023-05-07T21:47:03;12.20;85.80
43338;DHT22;28933;52.492;13.434;2023-05-07T21:49:28;12.20;85.90
43338;DHT22;28933;52.492;13.434;2023-05-07T21:51:54;12.10;86.00
43338;DHT22;28933;52.492;13.434;2023-05-07T21:54:20;12.10;86.10
43338;DHT22;28933;52.492;13.434;2023-05-07T21:56:46;12.10;86.40
43338;DHT22;28933;52.492;13.434;2023-05-07T21:59:11;12.00;86.50
43338;DHT22;28933;52.492;13.434;2023-05-07T22:01:37;12.00;86.70
43338;DHT22;28933;52.492;13.434;2023-05-07T22:04:03;11.90;86.80
43338;DHT22;28933;52.492;13.434;2023-05-07T22:06:28;11.90;87.00
43338;DHT22;28933;52.492;13.434;2023-05-07T22:08:54;11.90;87.20
43338;DHT22;28933;52.492;13.434;2023-05-07T22:11:20;11.80;87.30
43338;DHT22;28933;52.492;13.434;2023-05-07T22:13:46;11.90;87.60
43338;DHT22;28933;52.492;13.434;2023-05-07T22:16:11;11.80;87.80
43338;DHT22;28933;52.492;13.434;2023-05-07T22:18:37;11.80;87.90
43338;DHT22;28933;52.492;13.434;2023-05-07T22:21:03;11.70;88.00
43338;DHT22;28933;52.492;13.434;2023-05-07T22:23:28;11.70;88.20
43338;DHT22;28933;52.492;13.434;2023-05-07T22:25:54;11.70;88.50
43338;DHT22;28933;52.492;13.434;2023-05-07T22:28:20;11.70;88.70
43338;DHT22;28933;52.492;13.434;2023-05-07T22:30:46;11.60;88.80
43338;DHT22;28933;52.492;13.434;2023-05-07T22:33:11;11.60;88.90
43338;DHT22;28933;52.492;13.434;2023-05-07T22:35:37;11.60;89.00
43338;DHT22;28933;52.492;13.434;2023-05-07T22:38:03;11.50;89.20
43338;DHT22;28933;52.492;13.434;2023-05-07T22:40:29;11.50;89.30
43338;DHT22;28933;52.492;13.434;2023-05-07T22:42:54;11.50;89.40
43338;DHT22;28933;52.492;13.434;2023-05-07T22:45:20;11.50;89.60
43338;DHT22;28933;52.492;13.434;2023-05-07T22:47:45;11.40;89.60
43338;DHT22;28933;52.492;13.434;2023-05-07T22:50:11;11.40;89.80
43338;DHT22;28933;52.492;13.434;2023-05-07T22:52:37;11.40;90.00
43338;DHT22;28933;52.492;13.434;2023-05-07T22:55:02;11.30;90.00
43338;DHT22;28933;52.492;13.434;2023-05-07T22:57:28;11.30;90.00
43338;DHT22;28933;52.492;13.434;2023-05-07T22:59:54;11.30;90.10
43338;DHT22;28933;52.492;13.434;2023-05-07T23:02:20;11.30;90.10
43338;DHT22;28933;52.492;13.434;2023-05-07T23:04:46;11.20;90.20
43338;DHT22;28933;52.492;13.434;2023-05-07T23:07:12;11.20;90.30
43338;DHT22;28933;52.492;13.434;2023-05-07T23:09:38;11.20;90.30
43338;DHT22;28933;52.492;13.434;2023-05-07T23:12:03;11.20;90.40
43338;DHT22;28933;52.492;13.434;2023-05-07T23:14:30;11.10;90.60
43338;DHT22;28933;52.492;13.434;2023-05-07T23:16:55;11.10;90.40
43338;DHT22;28933;52.492;13.434;2023-05-07T23:19:21;11.10;90.50
43338;DHT22;28933;52.492;13.434;2023-05-07T23:21:47;11.10;90.60
43338;DHT22;28933;52.492;13.434;2023-05-07T23:24:13;11.10;90.60
43338;DHT22;28933;52.492;13.434;2023-05-07T23:26:39;11.00;90.60
43338;DHT22;28933;52.492;13.434;2023-05-07T23:29:05;11.00;90.70
43338;DHT22;28933;52.492;13.434;2023-05-07T23:31:31;10.90;90.80
43338;DHT22;28933;52.492;13.434;2023-05-07T23:33:56;11.00;90.80
43338;DHT22;28933;52.492;13.434;2023-05-07T23:36:22;10.90;90.90
43338;DHT22;28933;52.492;13.434;2023-05-07T23:38:47;10.90;90.90
43338;DHT22;28933;52.492;13.434;2023-05-07T23:41:13;10.90;91.00
43338;DHT22;28933;52.492;13.434;2023-05-07T23:43:39;10.90;91.10
43338;DHT22;28933;52.492;13.434;2023-05-07T23:46:04;10.90;91.10